Time,TemperatureF,DewpointF,PressureIn,WindDirection,WindDirectionDegrees,WindSpeedMPH,WindSpeedGustMPH,Humidity,HourlyPrecipIn,Conditions,Clouds,dailyrainin,SoftwareType,DateUTC
2013-09-06 16:03:00,73.0,72.4,29.88,ESE,112,1.1,-999.0,98,-99.99,,,0.00,Acu-Link.com,2013-09-06 20:03:00,
2013-09-06 16:18:00,72.0,71.4,29.86,ENE,67,1.7,-999.0,98,-99.99,,,0.00,Acu-Link.com,2013-09-06 20:18:00,
2013-09-06 16:34:00,72.5,71.9,29.85,ESE,112,1.1,-999.0,98,-99.99,,,0.00,Acu-Link.com,2013-09-06 20:34:00,
2013-09-06 16:49:00,71.8,71.2,29.86,South,180,0.0,-999.0,98,-99.99,,,0.00,Acu-Link.com,2013-09-06 20:49:00,
2013-09-06 17:04:00,72.0,71.4,29.85,SW,225,0.0,-999.0,98,-99.99,,,0.00,Acu-Link.com,2013-09-06 21:04:00,
2013-09-06 17:19:00,71.6,71.0,29.85,East,90,3.2,-999.0,98,-99.99,,,0.00,Acu-Link.com,2013-09-06 21:19:00,
2013-09-06 17:44:00,74.3,73.4,29.85,ESE,112,0.0,-999.0,97,-99.99,,,0.00,Acu-Link.com,2013-09-06 21:44:00,
2013-09-06 17:59:00,70.5,69.9,29.85,ESE,112,1.1,-999.0,98,-99.99,,,0.00,Acu-Link.com,2013-09-06 21:59:00,
2013-09-06 18:20:00,68.2,67.6,29.85,NNW,337,0.0,-999.0,98,-99.99,,,0.00,Acu-Link.com,2013-09-06 22:20:00,
2013-09-06 18:35:00,66.6,66.0,29.85,WNW,292,0.0,-999.0,98,-99.99,,,0.00,Acu-Link.com,2013-09-06 22:35:00,
2013-09-06 18:50:00,65.3,64.7,29.86,SE,135,1.7,-999.0,98,-99.99,,,0.00,Acu-Link.com,2013-09-06 22:50:00,
2013-09-06 19:06:00,63.9,63.3,29.84,SW,225,0.0,-999.0,98,-99.99,,,0.00,Acu-Link.com,2013-09-06 23:06:00,
2013-09-06 19:21:00,62.6,62.0,29.85,West,270,0.0,-999.0,98,-99.99,,,0.00,Acu-Link.com,2013-09-06 23:21:00,
2013-09-06 19:36:00,61.0,60.4,29.86,West,270,0.0,-999.0,98,-99.99,,,0.00,Acu-Link.com,2013-09-06 23:36:00,
2013-09-06 19:51:00,59.7,59.1,29.85,West,270,0.0,-999.0,98,-99.99,,,0.00,Acu-Link.com,2013-09-06 23:51:00,
2013-09-06 20:06:00,58.5,57.9,29.86,NW,315,0.0,-999.0,98,-99.99,,,0.00,Acu-Link.com,2013-09-07 00:06:00,
2013-09-06 20:21:00,57.6,57.0,29.86,NW,315,0.0,-999.0,98,-99.99,,,0.00,Acu-Link.com,2013-09-07 00:21:00,
2013-09-06 20:36:00,56.8,56.2,29.87,NW,315,0.0,-999.0,98,-99.99,,,0.00,Acu-Link.com,2013-09-07 00:36:00,
2013-09-06 20:51:00,55.9,55.3,29.86,West,270,0.0,-999.0,98,-99.99,,,0.00,Acu-Link.com,2013-09-07 00:51:00,
2013-09-06 21:06:00,55.0,54.4,29.87,NW,315,0.0,-999.0,98,-99.99,,,0.00,Acu-Link.com,2013-09-07 01:06:00,
2013-09-06 21:22:00,54.3,53.7,29.86,West,270,0.0,-999.0,98,-99.99,,,0.00,Acu-Link.com,2013-09-07 01:22:00,
2013-09-06 21:37:00,53.8,53.2,29.86,NW,315,0.0,-999.0,98,-99.99,,,0.00,Acu-Link.com,2013-09-07 01:37:00,
2013-09-06 21:52:00,53.2,52.6,29.86,SW,225,0.0,-999.0,98,-99.99,,,0.00,Acu-Link.com,2013-09-07 01:52:00,
2013-09-06 22:07:00,52.9,52.4,29.87,NW,315,0.0,-999.0,98,-99.99,,,0.00,Acu-Link.com,2013-09-07 02:07:00,
2013-09-06 22:22:00,52.5,52.0,29.86,NW,315,0.0,-999.0,98,-99.99,,,0.00,Acu-Link.com,2013-09-07 02:22:00,
2013-09-06 22:37:00,52.2,51.7,29.86,SSW,202,0.0,-999.0,98,-99.99,,,0.00,Acu-Link.com,2013-09-07 02:37:00,
2013-09-06 22:52:00,52.2,51.7,29.86,SW,225,0.0,-999.0,98,-99.99,,,0.00,Acu-Link.com,2013-09-07 02:52:00,
2013-09-06 23:07:00,52.0,51.5,29.86,WNW,292,0.0,-999.0,98,-99.99,,,0.00,Acu-Link.com,2013-09-07 03:07:00,
2013-09-06 23:22:00,51.8,51.3,29.86,WSW,247,0.0,-999.0,98,-99.99,,,0.00,Acu-Link.com,2013-09-07 03:22:00,
2013-09-06 23:37:00,51.6,51.1,29.85,West,270,0.0,-999.0,98,-99.99,,,0.00,Acu-Link.com,2013-09-07 03:37:00,
2013-09-06 23:53:00,51.3,50.8,29.85,SW,225,0.0,-999.0,98,-99.99,,,0.00,Acu-Link.com,2013-09-07 03:53:00,